sensor_id;sensor_type;location;lat;lon;timestamp;pressure;altitude;pressure_sealevel;temperature;humidity
31011;BME280;26395;53.412;19.598;2023-04-07T00:10:17;100578.23;;;7.46;75.79
31011;BME280;26395;53.412;19.598;2023-04-07T00:25:20;100565.99;;;7.44;76.72
31011;BME280;26395;53.412;19.598;2023-04-07T00:40:23;100560.67;;;7.48;76.99
31011;BME280;26395;53.412;19.598;2023-04-07T00:55:27;100551.55;;;7.49;77.44
31011;BME280;26395;53.412;19.598;2023-04-07T01:10:36;100537.06;;;7.53;77.77
31011;BME280;26395;53.412;19.598;2023-04-07T01:41:24;100515.80;;;7.55;79.08
31011;BME280;26395;53.412;19.598;2023-04-07T01:56:28;100503.00;;;7.59;79.67
31011;BME280;26395;53.412;19.598;2023-04-07T02:11:34;100494.21;;;7.63;79.85
31011;BME280;26395;53.412;19.598;2023-04-07T02:26:41;100502.45;;;7.67;80.46
31011;BME280;26395;53.412;19.598;2023-04-07T02:41:45;100494.73;;;7.75;81.34
31011;BME280;26395;53.412;19.598;2023-04-07T02:56:48;100486.89;;;7.75;82.18
31011;BME280;26395;53.412;19.598;2023-04-07T03:11:51;100483.16;;;7.81;82.10
31011;BME280;26395;53.412;19.598;2023-04-07T03:26:55;100480.09;;;7.82;83.00
31011;BME280;26395;53.412;19.598;2023-04-07T03:42:06;100484.29;;;7.96;82.94
31011;BME280;26395;53.412;19.598;2023-04-07T03:57:10;100496.95;;;7.95;83.70
31011;BME280;26395;53.412;19.598;2023-04-07T04:12:17;100485.42;;;8.04;83.49
31011;BME280;26395;53.412;19.598;2023-04-07T04:27:27;100487.02;;;8.09;83.51
31011;BME280;26395;53.412;19.598;2023-04-07T04:42:37;100496.56;;;8.09;84.68
31011;BME280;26395;53.412;19.598;2023-04-07T04:57:42;100502.48;;;8.12;86.46
31011;BME280;26395;53.412;19.598;2023-04-07T05:12:47;100507.30;;;8.20;87.75
31011;BME280;26395;53.412;19.598;2023-04-07T05:27:51;100507.38;;;8.30;88.46
31011;BME280;26395;53.412;19.598;2023-04-07T05:42:54;100506.95;;;8.41;89.13
31011;BME280;26395;53.412;19.598;2023-04-07T05:57:59;100509.86;;;8.56;88.79
31011;BME280;26395;53.412;19.598;2023-04-07T06:13:04;100522.52;;;8.68;89.30
31011;BME280;26395;53.412;19.598;2023-04-07T06:28:07;100530.36;;;8.77;90.57
31011;BME280;26395;53.412;19.598;2023-04-07T06:43:10;100528.92;;;9.03;88.92
31011;BME280;26395;53.412;19.598;2023-04-07T06:58:23;100513.48;;;9.25;88.96
31011;BME280;26395;53.412;19.598;2023-04-07T07:13:27;100511.33;;;9.45;88.60
31011;BME280;26395;53.412;19.598;2023-04-07T07:28:30;100520.31;;;9.68;88.88
31011;BME280;26395;53.412;19.598;2023-04-07T07:43:33;100524.69;;;9.86;88.82
31011;BME280;26395;53.412;19.598;2023-04-07T07:58:37;100518.77;;;9.94;88.77
31011;BME280;26395;53.412;19.598;2023-04-07T08:13:40;100526.66;;;10.13;88.88
31011;BME280;26395;53.412;19.598;2023-04-07T08:28:48;100525.21;;;10.26;90.02
31011;BME280;26395;53.412;19.598;2023-04-07T08:43:56;100532.09;;;10.41;90.20
31011;BME280;26395;53.412;19.598;2023-04-07T08:59:05;100527.56;;;10.43;89.90
31011;BME280;26395;53.412;19.598;2023-04-07T09:14:09;100524.92;;;10.68;90.29
31011;BME280;26395;53.412;19.598;2023-04-07T09:29:18;100526.34;;;11.34;92.64
31011;BME280;26395;53.412;19.598;2023-04-07T09:44:22;100520.13;;;11.94;91.18
31011;BME280;26395;53.412;19.598;2023-04-07T09:59:27;100518.41;;;12.61;90.43
31011;BME280;26395;53.412;19.598;2023-04-07T10:14:31;100520.59;;;12.91;88.55
31011;BME280;26395;53.412;19.598;2023-04-07T10:29:40;100504.52;;;13.59;88.30
31011;BME280;26395;53.412;19.598;2023-04-07T10:44:45;100488.09;;;14.03;86.62
31011;BME280;26395;53.412;19.598;2023-04-07T11:15:19;100505.15;;;14.56;85.95
31011;BME280;26395;53.412;19.598;2023-04-07T11:30:24;100498.16;;;15.45;85.12
31011;BME280;26395;53.412;19.598;2023-04-07T11:45:27;100492.94;;;16.42;83.47
31011;BME280;26395;53.412;19.598;2023-04-07T12:00:30;100475.20;;;17.46;82.37
31011;BME280;26395;53.412;19.598;2023-04-07T12:15:34;100478.36;;;18.49;79.11
31011;BME280;26395;53.412;19.598;2023-04-07T12:30:39;100475.95;;;17.80;73.18
31011;BME280;26395;53.412;19.598;2023-04-07T12:45:42;100488.77;;;18.66;73.53
31011;BME280;26395;53.412;19.598;2023-04-07T13:00:45;100475.54;;;20.25;71.13
31011;BME280;26395;53.412;19.598;2023-04-07T13:15:49;100468.90;;;20.39;68.77
31011;BME280;26395;53.412;19.598;2023-04-07T13:30:53;100461.00;;;20.53;68.60
31011;BME280;26395;53.412;19.598;2023-04-07T13:45:57;100450.84;;;21.41;67.80
31011;BME280;26395;53.412;19.598;2023-04-07T14:01:00;100433.91;;;21.97;67.43
31011;BME280;26395;53.412;19.598;2023-04-07T14:16:04;100421.33;;;22.47;65.11
31011;BME280;26395;53.412;19.598;2023-04-07T14:31:12;100410.81;;;21.70;63.99
31011;BME280;26395;53.412;19.598;2023-04-07T14:46:16;100404.48;;;20.22;64.77
31011;BME280;26395;53.412;19.598;2023-04-07T15:01:19;100400.14;;;19.73;65.60
31011;BME280;26395;53.412;19.598;2023-04-07T15:16:23;100435.48;;;18.93;67.92
31011;BME280;26395;53.412;19.598;2023-04-07T15:31:26;100483.30;;;17.22;75.09
31011;BME280;26395;53.412;19.598;2023-04-07T15:46:30;100495.78;;;16.56;77.94
31011;BME280;26395;53.412;19.598;2023-04-07T16:01:34;100512.68;;;16.44;80.73
31011;BME280;26395;53.412;19.598;2023-04-07T16:16:38;100516.69;;;16.35;82.02
31011;BME280;26395;53.412;19.598;2023-04-07T16:31:43;100523.52;;;16.32;82.55
31011;BME280;26395;53.412;19.598;2023-04-07T16:46:47;100534.16;;;16.26;83.65
31011;BME280;26395;53.412;19.598;2023-04-07T17:01:50;100561.51;;;16.18;84.03
31011;BME280;26395;53.412;19.598;2023-04-07T17:16:54;100579.56;;;16.01;84.92
31011;BME280;26395;53.412;19.598;2023-04-07T17:31:58;100597.06;;;15.89;85.84
31011;BME280;26395;53.412;19.598;2023-04-07T17:47:02;100625.02;;;15.80;86.06
31011;BME280;26395;53.412;19.598;2023-04-07T18:02:05;100641.61;;;15.69;86.10
31011;BME280;26395;53.412;19.598;2023-04-07T18:17:11;100662.58;;;15.60;86.45
31011;BME280;26395;53.412;19.598;2023-04-07T18:32:14;100681.09;;;15.41;86.83
31011;BME280;26395;53.412;19.598;2023-04-07T18:47:19;100701.06;;;15.27;86.84
31011;BME280;26395;53.412;19.598;2023-04-07T19:02:22;100707.00;;;15.10;86.93
31011;BME280;26395;53.412;19.598;2023-04-07T19:17:26;100730.05;;;15.01;87.31
31011;BME280;26395;53.412;19.598;2023-04-07T19:32:29;100749.02;;;14.88;87.33
31011;BME280;26395;53.412;19.598;2023-04-07T19:47:34;100758.26;;;14.85;87.53
31011;BME280;26395;53.412;19.598;2023-04-07T20:02:37;100774.75;;;14.73;88.02
31011;BME280;26395;53.412;19.598;2023-04-07T20:17:41;100790.09;;;14.69;88.59
31011;BME280;26395;53.412;19.598;2023-04-07T20:32:46;100815.05;;;14.56;87.68
31011;BME280;26395;53.412;19.598;2023-04-07T20:47:50;100826.86;;;14.00;82.77
31011;BME280;26395;53.412;19.598;2023-04-07T21:02:53;100838.44;;;13.76;81.55
31011;BME280;26395;53.412;19.598;2023-04-07T21:17:56;100850.85;;;13.82;81.58
31011;BME280;26395;53.412;19.598;2023-04-07T21:33:00;100858.63;;;13.66;81.75
31011;BME280;26395;53.412;19.598;2023-04-07T21:48:03;100873.19;;;13.24;82.35
31011;BME280;26395;53.412;19.598;2023-04-07T22:03:07;100883.10;;;12.91;82.01
31011;BME280;26395;53.412;19.598;2023-04-07T22:18:11;100884.78;;;12.57;81.19
31011;BME280;26395;53.412;19.598;2023-04-07T22:33:15;100891.41;;;12.23;80.60
31011;BME280;26395;53.412;19.598;2023-04-07T22:48:18;100896.94;;;11.93;79.52
31011;BME280;26395;53.412;19.598;2023-04-07T23:03:21;100909.29;;;11.68;79.58
31011;BME280;26395;53.412;19.598;2023-04-07T23:18:25;100924.19;;;11.42;79.17
31011;BME280;26395;53.412;19.598;2023-04-07T23:33:29;100928.88;;;10.92;79.10
31011;BME280;26395;53.412;19.598;2023-04-07T23:48:33;100927.64;;;10.70;79.32
